DP World Karachi QICT

10th Oct 2018

Vessel Voyage Vir No ETA ETD ATA ATD Cut Off EGM EGM Date
On Berth Vessel(s)
CONTI DARWIN 18103 KPPI-0482-05102018 10/10/2018 13:30 10/11/2018 10:00 10/10/2018 10:40 - 10/9/2018 23:59 1264/2018 4-Oct-18
MAERSK DETROIT 1810 KPPI-0479-05102018 10/9/2018 18:00 10/11/2018 8:00 10/9/2018 19:20 - 10/9/2018 22:00 1257/2018 2-Oct-18
MSC MARIA ELENA 841 KPPI-0475-02102018 10/9/2018 15:00 10/11/2018 10:00 10/9/2018 13:30 - 10/8/2018 23:59 1262/2018 3-Oct-18
Upcomming or Old Vessel(s)
CSAV TYNDALL 1842 KPPI-0485-08102018 10/16/2018 23:59 10/18/2018 10:00 - - 10/15/2018 23:59 1279/2018 8-Oct-18
MAERSK HARTFORD 1810 - 10/16/2018 10:00 10/17/2018 10:00 - - 10/15/2018 22:00 1289/2018 9-Oct-18
SM NEW YORK 839 KPPI-0487-10102018 10/15/2018 13:00 10/16/2018 10:00 - - 10/14/2018 23:59 1288/2018 9-Oct-18
MSC BILBAO 835 KPPI-0486-10102018 10/15/2018 13:00 10/16/2018 10:00 - - 10/14/2018 23:59 1287/2018 9-Oct-18
MS TIGER 49 KPPI-0481-05102018 10/14/2018 18:00 10/15/2018 5:00 - - 10/13/2018 23:59 1274/2018 5-Oct-18
NICOLINE MAERSK 1817 KPPI-0484-08102018 10/13/2018 18:00 10/15/2018 18:00 - - 10/13/2018 13:00 1275/2018 6-Oct-18
CMA CGM FIDELIO 257 KPPI-0477-03102018 10/12/2018 19:00 10/13/2018 10:00 - - 10/11/2018 23:59 1269/2018 5-Oct-18
SONGA CALABRIA 13 KPPI-0480-05102018 10/12/2018 6:00 10/12/2018 20:00 - - 10/11/2018 23:59 1273/2018 5-Oct-18
TEMPANOS 8141 KPPI-0478-04102018 10/11/2018 23:59 10/12/2018 13:00 - - 10/10/2018 23:59 1265/2018 4-Oct-18
GH CHINOOK 1819 KPPI-0483-08102018 10/11/2018 18:00 10/12/2018 18:00 - - 10/10/2018 13:00 1263/2018 4-Oct-18
MSC ESTHI 834 KPPI-0474-02102018 10/8/2018 13:00 10/9/2018 10:00 10/8/2018 8:50 10/9/2018 10:30 10/7/2018 23:59 1261/2018 3-Oct-18
MSC SAVANNAH 838 - 10/8/2018 10:00 10/9/2018 10:00 - - 9/30/2018 23:59 - -
DIYALA 18146 KPPI-0476-03102018 10/7/2018 17:00 10/7/2018 10:00 10/7/2018 17:00 10/8/2018 6:20 10/6/2018 23:59 1252/2018 2-Oct-18
DIYALA 18147 - 10/7/2018 10:00 10/8/2018 10:00 - - 10/6/2018 23:59 - -
SAFMARINE NYASSA 1821 KPPI-0473-01102018 10/6/2018 18:00 10/8/2018 6:00 10/6/2018 16:30 10/7/2018 22:30 10/6/2018 13:00 1246/2018 30-Sep-18
MAERSK SALINA 1811 KPPI-0471-01102018 10/5/2018 12:00 10/8/2018 6:00 10/5/2018 20:00 10/8/2018 6:15 10/5/2018 23:59 1245/2018 30-Sep-18
CMA CGM VIRGINIA 5 KPPI-0470-28092018 10/5/2018 11:00 10/6/2018 10:00 10/5/2018 5:40 10/5/2018 16:00 10/4/2018 23:59 1228/2018 25-Sep-18
MAERSK SALINA 255 - 10/5/2018 9:00 10/6/2018 10:00 - - 10/4/2018 23:59 - -
HANSA AMERICA 1823 KPPI-0472-01102018 10/4/2018 19:00 10/5/2018 23:00 10/4/2018 19:10 10/5/2018 23:00 10/4/2018 13:00 1234/2018 27-Sep-18
CMA CGM ALMAVIVA 8140 KPPI-0469-28092018 10/4/2018 16:00 10/5/2018 10:00 10/4/2018 9:30 10/5/2018 14:20 10/3/2018 23:59 1227/2018 25-Sep-18
MOL GATEWAY 44 KPPI-0467-27092018 10/3/2018 20:00 10/4/2018 6:00 10/3/2018 15:40 10/4/2018 7:00 10/2/2018 23:59 1229/2018 25-Sep-18
E.R. TOKYO 840 KPPI-0468-28092018 10/3/2018 17:00 10/4/2018 16:00 10/3/2018 8:40 10/4/2018 16:00 10/1/2018 23:59 1240/2018 28-Sep-18